createdAt,value
2018-04-30T00:00:04.970Z,11.52
2018-04-30T00:02:33.271Z,11.59
2018-04-30T00:05:02.314Z,11.52
2018-04-30T00:07:30.602Z,11.45
2018-04-30T00:09:59.077Z,11.41
2018-04-30T00:12:27.793Z,11.36
2018-04-30T00:14:56.189Z,11.42
2018-04-30T00:17:25.178Z,11.39
2018-04-30T00:19:54.191Z,11.55
2018-04-30T00:22:23.262Z,11.42
2018-04-30T00:24:52.431Z,11.35
2018-04-30T00:27:20.702Z,11.33
2018-04-30T00:29:49.330Z,11.40
2018-04-30T00:32:17.615Z,11.50
2018-04-30T00:34:45.913Z,11.41
2018-04-30T00:37:15.058Z,11.32
2018-04-30T00:39:44.146Z,11.29
2018-04-30T00:42:12.639Z,11.26
2018-04-30T00:44:41.110Z,11.18
2018-04-30T00:47:09.727Z,11.19
2018-04-30T00:49:37.995Z,11.20
2018-04-30T00:52:06.306Z,11.18
2018-04-30T00:54:53.160Z,11.16
2018-04-30T00:57:21.539Z,11.21
2018-04-30T00:59:49.918Z,11.05
2018-04-30T01:02:18.840Z,11.05
2018-04-30T01:04:47.614Z,11.13
2018-04-30T01:07:16.171Z,11.18
2018-04-30T01:09:46.115Z,11.12
2018-04-30T01:12:21.623Z,11.12
2018-04-30T01:14:49.918Z,11.12
2018-04-30T01:17:18.414Z,11.15
2018-04-30T01:19:46.718Z,11.10
2018-04-30T01:22:15.070Z,11.17
2018-04-30T01:24:43.468Z,11.17
2018-04-30T01:27:11.755Z,11.06
2018-04-30T01:29:40.039Z,11.07
2018-04-30T01:32:09.082Z,11.09
2018-04-30T01:34:37.498Z,11.05
2018-04-30T01:37:05.775Z,11.10
2018-04-30T01:39:34.083Z,11.07
2018-04-30T01:42:02.431Z,11.13
2018-04-30T01:44:31.054Z,11.18
2018-04-30T01:47:00.118Z,11.17
2018-04-30T01:49:28.771Z,11.15
2018-04-30T01:51:57.070Z,11.21
2018-04-30T01:54:25.355Z,11.15
2018-04-30T01:56:53.628Z,11.09
2018-04-30T01:59:21.995Z,11.17
2018-04-30T02:01:50.275Z,11.16
2018-04-30T02:04:19.451Z,11.18
2018-04-30T02:06:48.683Z,11.19
2018-04-30T02:09:17.858Z,11.28
2018-04-30T02:11:46.144Z,11.23
2018-04-30T02:14:14.539Z,11.19
2018-04-30T02:16:42.909Z,11.27
2018-04-30T02:19:11.211Z,11.25
2018-04-30T02:21:40.165Z,11.12
2018-04-30T02:24:08.454Z,11.16
2018-04-30T02:26:37.614Z,11.11
2018-04-30T02:29:06.655Z,11.01
2018-04-30T02:31:34.960Z,11.01
2018-04-30T02:34:03.518Z,11.11
2018-04-30T02:36:31.803Z,11.09
2018-04-30T02:39:00.804Z,11.07
2018-04-30T02:41:29.872Z,11.17
2018-04-30T02:43:58.264Z,11.16
2018-04-30T02:46:26.571Z,11.12
2018-04-30T02:48:54.876Z,11.20
2018-04-30T02:51:23.938Z,11.05
2018-04-30T02:53:52.311Z,11.15
2018-04-30T02:56:20.608Z,11.13
2018-04-30T02:58:49.258Z,11.20
2018-04-30T03:01:17.528Z,11.12
2018-04-30T03:03:46.023Z,11.18
2018-04-30T03:06:15.011Z,11.18
2018-04-30T03:08:43.285Z,11.11
2018-04-30T03:11:11.585Z,11.05
2018-04-30T03:13:39.990Z,11.18
2018-04-30T03:16:09.095Z,11.09
2018-04-30T03:18:38.290Z,11.13
2018-04-30T03:21:06.571Z,11.18
2018-04-30T03:23:34.847Z,11.04
2018-04-30T03:26:04.607Z,11.00
2018-04-30T03:28:32.883Z,11.13
2018-04-30T03:31:01.160Z,10.98
2018-04-30T03:33:29.561Z,11.05
2018-04-30T03:35:57.873Z,11.08
2018-04-30T03:38:26.150Z,10.99
2018-04-30T03:40:54.447Z,10.95
2018-04-30T03:43:23.498Z,11.03
2018-04-30T03:45:51.772Z,11.12
2018-04-30T03:48:20.074Z,11.10
2018-04-30T03:50:48.350Z,11.13
2018-04-30T03:53:16.627Z,11.28
2018-04-30T03:55:44.967Z,11.26
2018-04-30T03:58:13.251Z,11.23
2018-04-30T04:00:59.259Z,11.27
2018-04-30T04:03:45.406Z,11.27
2018-04-30T04:09:24.207Z,11.34
2018-04-30T04:11:52.502Z,11.41
2018-04-30T04:14:20.786Z,11.53
2018-04-30T04:16:49.839Z,11.51
2018-04-30T04:19:18.419Z,11.50
2018-04-30T04:21:47.924Z,11.62
2018-04-30T04:24:16.224Z,11.67
2018-04-30T04:26:44.589Z,11.61
2018-04-30T04:29:12.878Z,11.61
2018-04-30T04:31:41.279Z,11.65
2018-04-30T04:34:10.398Z,11.70
2018-04-30T04:36:39.752Z,11.73
2018-04-30T04:39:08.120Z,11.83
2018-04-30T04:41:36.610Z,11.92
2018-04-30T04:44:04.824Z,11.82
2018-04-30T04:46:33.131Z,11.95
2018-04-30T04:49:01.453Z,12.13
2018-04-30T04:51:29.726Z,12.07
2018-04-30T04:53:58.002Z,12.28
2018-04-30T04:56:26.379Z,12.32
2018-04-30T04:58:54.659Z,12.31
2018-04-30T05:01:22.930Z,12.24
2018-04-30T05:03:51.298Z,12.25
2018-04-30T05:06:19.926Z,12.07
2018-04-30T05:08:48.235Z,12.17
2018-04-30T05:11:17.582Z,12.18
2018-04-30T05:13:45.955Z,12.18
2018-04-30T05:16:14.250Z,12.20
2018-04-30T05:18:42.756Z,12.14
2018-04-30T05:21:11.178Z,12.25
2018-04-30T05:23:39.463Z,12.17
2018-04-30T05:26:07.743Z,12.04
2018-04-30T05:28:36.227Z,12.19
2018-04-30T05:31:04.509Z,12.14
2018-04-30T05:33:32.782Z,12.18
2018-04-30T05:36:02.178Z,12.19
2018-04-30T05:38:30.459Z,12.28
2018-04-30T05:40:58.730Z,12.32
2018-04-30T05:43:27.127Z,12.43
2018-04-30T05:45:55.421Z,12.60
2018-04-30T05:48:24.099Z,12.68
2018-04-30T05:50:52.398Z,12.82
2018-04-30T05:53:20.989Z,13.08
2018-04-30T05:55:50.071Z,13.07
2018-04-30T05:58:18.438Z,13.24
2018-04-30T06:00:46.706Z,13.40
2018-04-30T06:03:15.190Z,13.41
2018-04-30T06:05:43.478Z,13.34
2018-04-30T06:08:11.839Z,13.54
2018-04-30T06:10:40.130Z,13.59
2018-04-30T06:13:08.411Z,13.60
2018-04-30T06:15:37.462Z,13.82
2018-04-30T06:18:06.694Z,13.97
2018-04-30T06:20:36.463Z,13.99
2018-04-30T06:23:05.512Z,13.83
2018-04-30T06:25:33.828Z,13.87
2018-04-30T06:28:02.115Z,13.73
2018-04-30T06:30:31.267Z,13.76
2018-04-30T06:32:59.630Z,13.63
2018-04-30T06:35:28.460Z,13.62
2018-04-30T06:37:57.044Z,13.54
2018-04-30T06:40:26.955Z,13.56
2018-04-30T06:42:55.231Z,13.67
2018-04-30T06:45:23.686Z,13.59
2018-04-30T06:47:52.398Z,13.52
2018-04-30T06:50:20.710Z,13.71
2018-04-30T06:52:49.772Z,13.77
2018-04-30T06:55:18.149Z,13.90
2018-04-30T06:57:46.549Z,14.11
2018-04-30T07:00:14.862Z,14.19
2018-04-30T07:02:43.925Z,14.26
2018-04-30T07:05:12.213Z,14.47
2018-04-30T07:07:40.953Z,14.48
2018-04-30T07:10:09.233Z,14.55
2018-04-30T07:12:38.344Z,14.43
2018-04-30T07:15:06.643Z,14.58
2018-04-30T07:17:34.945Z,14.87
2018-04-30T07:20:04.295Z,15.06
2018-04-30T07:22:32.817Z,15.47
2018-04-30T07:25:01.129Z,15.56
2018-04-30T07:27:29.497Z,15.76
2018-04-30T07:29:57.735Z,15.82
2018-04-30T07:32:26.291Z,16.13
2018-04-30T07:34:54.563Z,16.24
2018-04-30T07:37:23.767Z,16.48
2018-04-30T07:39:52.092Z,16.65
2018-04-30T07:42:20.381Z,16.77
2018-04-30T07:44:49.521Z,16.77
2018-04-30T07:47:17.806Z,16.69
2018-04-30T07:49:46.099Z,16.75
2018-04-30T07:52:14.411Z,16.90
2018-04-30T07:54:43.459Z,16.70
2018-04-30T07:57:11.753Z,16.92
2018-04-30T07:59:40.050Z,16.95
2018-04-30T08:02:08.492Z,17.21
2018-04-30T08:04:36.870Z,17.12
2018-04-30T08:07:05.151Z,17.02
2018-04-30T08:09:33.473Z,17.07
2018-04-30T08:12:02.521Z,17.07
2018-04-30T08:14:30.799Z,16.95
2018-04-30T08:16:59.103Z,17.10
2018-04-30T08:19:27.480Z,16.98
2018-04-30T08:21:55.980Z,16.61
2018-04-30T08:24:24.315Z,16.75
2018-04-30T08:26:52.587Z,17.04
2018-04-30T08:29:20.880Z,16.97
2018-04-30T08:31:49.188Z,16.96
2018-04-30T08:34:17.458Z,17.13
2018-04-30T08:36:46.444Z,17.33
2018-04-30T08:39:14.818Z,17.54
2018-04-30T08:41:43.178Z,17.62
2018-04-30T08:44:13.127Z,17.70
2018-04-30T08:46:41.992Z,17.99
2018-04-30T08:49:10.354Z,18.10
2018-04-30T08:51:39.378Z,17.91
2018-04-30T08:54:07.675Z,18.03
2018-04-30T08:56:35.954Z,18.08
2018-04-30T08:59:05.200Z,18.28
2018-04-30T09:01:33.469Z,18.52
2018-04-30T09:04:01.965Z,18.13
2018-04-30T09:06:30.586Z,18.58
2018-04-30T09:08:58.861Z,18.26
2018-04-30T09:11:27.943Z,18.36
2018-04-30T09:13:56.262Z,18.23
2018-04-30T09:16:24.543Z,18.26
2018-04-30T09:18:53.590Z,18.18
2018-04-30T09:21:21.970Z,18.26
2018-04-30T09:23:51.188Z,18.13
2018-04-30T09:26:19.460Z,18.22
2018-04-30T09:28:47.764Z,18.00
2018-04-30T09:31:16.106Z,18.14
2018-04-30T09:33:44.457Z,18.13
2018-04-30T09:36:13.503Z,18.36
2018-04-30T09:38:41.867Z,18.42
2018-04-30T09:41:10.372Z,18.42
2018-04-30T09:43:39.039Z,18.43
2018-04-30T09:46:07.421Z,18.63
2018-04-30T09:48:35.709Z,18.63
2018-04-30T09:51:04.817Z,18.74
2018-04-30T09:53:33.122Z,18.63
2018-04-30T09:56:03.427Z,18.59
2018-04-30T09:58:31.750Z,18.49
2018-04-30T10:01:00.070Z,18.48
2018-04-30T10:03:28.346Z,18.31
2018-04-30T10:05:56.724Z,18.23
2018-04-30T10:08:25.439Z,18.22
2018-04-30T10:10:54.998Z,18.13
2018-04-30T10:13:23.300Z,18.23
2018-04-30T10:15:52.370Z,18.25
2018-04-30T10:18:20.655Z,18.19
2018-04-30T10:20:48.971Z,18.20
2018-04-30T10:23:17.341Z,18.59
2018-04-30T10:25:46.569Z,18.53
2018-04-30T10:28:14.897Z,18.60
2018-04-30T10:30:43.171Z,18.69
2018-04-30T10:33:11.452Z,18.36
2018-04-30T10:35:40.270Z,18.45
2018-04-30T10:38:08.688Z,18.31
2018-04-30T10:40:36.956Z,18.38
2018-04-30T10:43:06.011Z,17.93
2018-04-30T10:45:34.384Z,17.78
2018-04-30T10:48:02.678Z,17.82
2018-04-30T10:50:30.976Z,17.82
2018-04-30T10:53:00.032Z,17.77
2018-04-30T10:55:28.539Z,17.73
2018-04-30T10:57:57.558Z,17.53
2018-04-30T11:00:27.568Z,17.30
2018-04-30T11:02:57.246Z,17.19
2018-04-30T11:05:27.048Z,17.07
2018-04-30T11:07:55.351Z,16.97
2018-04-30T11:10:24.189Z,16.94
2018-04-30T11:12:52.562Z,16.74
2018-04-30T11:15:21.460Z,16.59
2018-04-30T11:17:49.739Z,16.44
2018-04-30T11:20:18.979Z,16.46
2018-04-30T11:22:47.542Z,16.45
2018-04-30T11:25:16.849Z,16.41
2018-04-30T11:27:46.078Z,16.58
2018-04-30T11:30:14.983Z,16.72
2018-04-30T11:32:44.052Z,16.73
2018-04-30T11:35:12.444Z,16.73
2018-04-30T11:37:40.743Z,16.68
2018-04-30T11:40:10.531Z,16.62
2018-04-30T11:42:39.798Z,16.78
2018-04-30T11:45:08.848Z,17.14
2018-04-30T11:47:37.931Z,17.50
2018-04-30T11:50:06.222Z,17.81
2018-04-30T11:52:36.182Z,17.74
2018-04-30T11:55:04.873Z,17.39
2018-04-30T11:57:33.714Z,17.19
2018-04-30T12:00:03.631Z,16.66
2018-04-30T12:02:33.502Z,16.61
2018-04-30T12:05:01.817Z,16.29
2018-04-30T12:07:30.801Z,16.22
2018-04-30T12:09:59.167Z,16.08
2018-04-30T12:12:27.465Z,15.90
2018-04-30T12:14:55.863Z,15.73
2018-04-30T12:17:25.751Z,15.57
2018-04-30T12:19:54.063Z,15.51
2018-04-30T12:22:23.187Z,15.41
2018-04-30T12:24:52.900Z,15.48
2018-04-30T12:27:21.203Z,15.50
2018-04-30T12:29:49.563Z,15.52
2018-04-30T12:32:17.842Z,15.40
2018-04-30T12:34:46.426Z,15.41
2018-04-30T12:37:15.443Z,15.30
2018-04-30T12:39:44.261Z,15.27
2018-04-30T12:42:13.589Z,15.26
2018-04-30T12:44:42.602Z,15.17
2018-04-30T12:47:11.835Z,15.00
2018-04-30T12:49:40.170Z,15.00
2018-04-30T12:52:09.709Z,14.88
2018-04-30T12:54:38.006Z,14.87
2018-04-30T12:57:06.742Z,14.76
2018-04-30T12:59:35.182Z,14.71
2018-04-30T13:02:03.472Z,14.68
2018-04-30T13:04:32.522Z,14.59
2018-04-30T13:07:01.526Z,14.49
2018-04-30T13:09:30.398Z,14.32
2018-04-30T13:11:58.687Z,14.13
2018-04-30T13:14:27.390Z,13.90
2018-04-30T13:16:55.683Z,13.79
2018-04-30T13:19:24.103Z,13.73
2018-04-30T13:21:52.375Z,13.70
2018-04-30T13:24:21.427Z,13.66
2018-04-30T13:26:49.690Z,13.61
2018-04-30T13:29:18.000Z,13.62
2018-04-30T13:31:46.538Z,13.68
2018-04-30T13:34:15.438Z,13.64
2018-04-30T13:36:43.707Z,13.63
2018-04-30T13:39:12.091Z,13.56
2018-04-30T13:41:40.351Z,13.55
2018-04-30T13:44:08.751Z,13.54
2018-04-30T13:46:37.023Z,13.46
2018-04-30T13:49:05.314Z,13.41
2018-04-30T13:51:33.622Z,13.43
2018-04-30T13:54:01.906Z,13.50
2018-04-30T13:56:30.191Z,13.57
2018-04-30T13:58:59.247Z,13.53
2018-04-30T14:01:27.636Z,13.52
2018-04-30T14:03:55.920Z,13.51
2018-04-30T14:06:24.539Z,13.60
2018-04-30T14:08:53.695Z,13.67
2018-04-30T14:11:22.223Z,13.79
2018-04-30T14:13:51.393Z,13.73
2018-04-30T14:16:20.502Z,13.87
2018-04-30T14:18:48.769Z,14.04
2018-04-30T14:21:17.307Z,14.26
2018-04-30T14:23:45.582Z,14.66
2018-04-30T14:26:13.866Z,14.88
2018-04-30T14:28:42.530Z,15.13
2018-04-30T14:31:10.821Z,15.48
2018-04-30T14:33:39.098Z,15.95
2018-04-30T14:36:07.480Z,16.22
2018-04-30T14:38:36.507Z,17.16
2018-04-30T14:41:04.888Z,18.15
2018-04-30T14:43:33.146Z,18.08
2018-04-30T14:46:02.746Z,19.14
2018-04-30T14:48:31.139Z,19.52
2018-04-30T14:50:59.423Z,18.57
2018-04-30T14:53:27.687Z,17.97
2018-04-30T14:55:56.004Z,18.97
2018-04-30T14:58:29.045Z,21.06
2018-04-30T15:00:58.329Z,21.92
2018-04-30T15:03:26.610Z,21.93
2018-04-30T15:05:54.870Z,21.65
2018-04-30T15:08:25.123Z,21.84
2018-04-30T15:10:54.251Z,23.34
2018-04-30T15:13:23.246Z,22.99
2018-04-30T15:15:52.867Z,23.86
2018-04-30T15:18:22.059Z,24.42
2018-04-30T15:20:50.746Z,23.49
2018-04-30T15:23:19.657Z,23.40
2018-04-30T15:25:47.980Z,24.20
2018-04-30T15:28:16.272Z,22.80
2018-04-30T15:30:44.550Z,23.72
2018-04-30T15:33:12.870Z,24.14
2018-04-30T15:35:41.429Z,23.69
2018-04-30T15:38:10.299Z,23.69
2018-04-30T15:40:39.735Z,22.46
2018-04-30T15:43:08.119Z,20.91
2018-04-30T15:45:37.017Z,20.48
2018-04-30T15:48:05.997Z,20.57
2018-04-30T15:50:34.839Z,22.13
2018-04-30T15:53:03.111Z,22.80
2018-04-30T15:55:31.449Z,24.21
2018-04-30T15:58:00.228Z,23.46
2018-04-30T16:00:28.434Z,22.28
2018-04-30T16:02:56.714Z,22.95
2018-04-30T16:05:25.001Z,23.43
2018-04-30T16:07:54.163Z,23.92
2018-04-30T16:10:23.247Z,25.84
2018-04-30T16:12:51.655Z,26.35
2018-04-30T16:15:20.845Z,25.36
2018-04-30T16:17:49.639Z,24.60
2018-04-30T16:20:18.591Z,25.30
2018-04-30T16:22:47.028Z,26.12
2018-04-30T16:25:15.312Z,25.35
2018-04-30T16:27:45.478Z,25.50
2018-04-30T16:30:14.027Z,25.62
2018-04-30T16:32:43.565Z,24.55
2018-04-30T16:35:11.839Z,24.21
2018-04-30T16:37:40.103Z,23.77
2018-04-30T16:40:08.549Z,22.12
2018-04-30T16:42:37.423Z,22.19
2018-04-30T16:45:05.710Z,21.88
2018-04-30T16:47:34.005Z,23.00
2018-04-30T16:50:03.098Z,23.18
2018-04-30T16:52:31.555Z,22.31
2018-04-30T16:54:59.844Z,21.20
2018-04-30T16:57:28.146Z,21.57
2018-04-30T16:59:57.584Z,21.23
2018-04-30T17:02:25.914Z,20.44
2018-04-30T17:04:54.200Z,20.22
2018-04-30T17:07:22.735Z,20.02
2018-04-30T17:09:51.022Z,19.73
2018-04-30T17:12:19.302Z,19.26
2018-04-30T17:14:47.670Z,19.39
2018-04-30T17:17:15.939Z,19.39
2018-04-30T17:19:44.432Z,19.52
2018-04-30T17:22:13.311Z,19.05
2018-04-30T17:24:41.728Z,18.72
2018-04-30T17:27:09.994Z,18.16
2018-04-30T17:29:38.288Z,17.84
2018-04-30T17:32:07.298Z,17.50
2018-04-30T17:34:35.569Z,17.14
2018-04-30T17:37:03.923Z,17.26
2018-04-30T17:39:32.742Z,17.26
2018-04-30T17:42:01.536Z,17.23
2018-04-30T17:44:30.101Z,17.15
2018-04-30T17:46:58.473Z,17.08
2018-04-30T17:49:26.744Z,17.05
2018-04-30T17:51:55.124Z,17.00
2018-04-30T17:54:23.414Z,17.01
2018-04-30T17:56:51.695Z,16.94
2018-04-30T17:59:20.023Z,16.84
2018-04-30T18:01:48.288Z,16.71
2018-04-30T18:04:17.330Z,16.70
2018-04-30T18:06:46.022Z,16.76
2018-04-30T18:09:14.337Z,16.71
2018-04-30T18:11:42.639Z,16.66
2018-04-30T18:14:10.954Z,16.68
2018-04-30T18:16:39.229Z,16.58
2018-04-30T18:19:07.496Z,16.50
2018-04-30T18:21:35.797Z,16.44
2018-04-30T18:24:04.115Z,16.47
2018-04-30T18:26:33.171Z,16.43
2018-04-30T18:29:01.499Z,16.45
2018-04-30T18:31:29.816Z,16.46
2018-04-30T18:33:58.381Z,16.39
2018-04-30T18:36:26.657Z,16.37
2018-04-30T18:38:54.949Z,16.31
2018-04-30T18:41:23.414Z,16.19
2018-04-30T18:43:51.754Z,16.26
2018-04-30T18:46:20.020Z,16.25
2018-04-30T18:48:48.675Z,16.15
2018-04-30T18:51:16.955Z,16.16
2018-04-30T18:53:45.225Z,16.06
2018-04-30T18:56:13.527Z,16.11
2018-04-30T18:58:42.670Z,16.15
2018-04-30T19:01:11.723Z,16.10
2018-04-30T19:03:40.281Z,15.98
2018-04-30T19:06:08.611Z,15.89
2018-04-30T19:08:37.690Z,15.87
2018-04-30T19:11:05.955Z,15.77
2018-04-30T19:13:34.272Z,15.79
2018-04-30T19:16:03.341Z,15.72
2018-04-30T19:18:32.031Z,15.62
2018-04-30T19:21:00.963Z,15.49
2018-04-30T19:23:29.243Z,15.52
2018-04-30T19:25:57.537Z,15.42
2018-04-30T19:28:26.086Z,15.30
2018-04-30T19:30:55.252Z,15.20
2018-04-30T19:33:23.618Z,15.15
2018-04-30T19:35:52.730Z,15.09
2018-04-30T19:38:21.583Z,15.13
2018-04-30T19:40:49.882Z,15.05
2018-04-30T19:43:18.178Z,15.08
2018-04-30T19:45:46.652Z,15.09
2018-04-30T19:48:14.948Z,14.94
2018-04-30T19:50:43.537Z,14.81
2018-04-30T19:53:11.846Z,14.77
2018-04-30T19:55:40.139Z,14.71
2018-04-30T19:58:08.412Z,14.68
2018-04-30T20:00:36.710Z,14.69
2018-04-30T20:03:05.032Z,14.61
2018-04-30T20:05:33.318Z,14.58
2018-04-30T20:08:03.338Z,14.67
2018-04-30T20:10:32.394Z,14.61
2018-04-30T20:13:00.975Z,14.45
2018-04-30T20:15:29.242Z,14.37
2018-04-30T20:17:57.648Z,14.31
2018-04-30T20:20:25.995Z,14.27
2018-04-30T20:22:54.187Z,14.21
2018-04-30T20:25:22.557Z,14.10
2018-04-30T20:27:50.848Z,13.97
2018-04-30T20:30:20.052Z,13.95
2018-04-30T20:32:48.859Z,13.91
2018-04-30T20:35:17.166Z,13.85
2018-04-30T20:37:47.209Z,13.79
2018-04-30T20:40:15.494Z,13.75
2018-04-30T20:42:45.210Z,13.69
2018-04-30T20:45:14.829Z,13.63
2018-04-30T20:47:43.110Z,13.54
2018-04-30T20:50:12.294Z,13.42
2018-04-30T20:52:40.572Z,13.33
2018-04-30T20:55:10.434Z,13.28
2018-04-30T20:57:39.338Z,13.26
2018-04-30T21:00:08.493Z,13.19
2018-04-30T21:02:38.442Z,13.18
2018-04-30T21:05:06.719Z,13.10
2018-04-30T21:07:35.010Z,13.06
2018-04-30T21:10:04.074Z,13.07
2018-04-30T21:12:32.771Z,12.98
2018-04-30T21:15:01.400Z,12.92
2018-04-30T21:17:29.692Z,12.77
2018-04-30T21:19:57.950Z,12.62
2018-04-30T21:22:26.363Z,12.35
2018-04-30T21:24:55.574Z,12.18
2018-04-30T21:27:23.851Z,12.10
2018-04-30T21:29:52.666Z,11.98
2018-04-30T21:32:20.947Z,11.82
2018-04-30T21:34:50.199Z,11.78
2018-04-30T21:37:20.069Z,11.61
2018-04-30T21:39:49.119Z,11.19
2018-04-30T21:42:17.611Z,10.97
2018-04-30T21:44:46.602Z,11.20
2018-04-30T21:47:15.645Z,11.29
2018-04-30T21:49:44.704Z,11.42
2018-04-30T21:52:13.914Z,11.32
2018-04-30T21:54:44.449Z,11.30
2018-04-30T21:57:12.728Z,11.30
2018-04-30T21:59:41.007Z,11.08
2018-04-30T22:02:09.312Z,10.95
2018-04-30T22:04:38.353Z,11.08
2018-04-30T22:07:06.722Z,11.15
2018-04-30T22:09:35.262Z,11.26
2018-04-30T22:12:04.370Z,11.38
2018-04-30T22:14:32.610Z,11.44
2018-04-30T22:17:01.420Z,11.58
2018-04-30T22:19:31.593Z,11.57
2018-04-30T22:22:00.239Z,11.72
2018-04-30T22:24:29.296Z,11.68
2018-04-30T22:26:57.667Z,11.71
2018-04-30T22:29:25.926Z,11.66
2018-04-30T22:31:54.203Z,11.59
2018-04-30T22:34:22.715Z,11.54
2018-04-30T22:36:52.502Z,11.58
2018-04-30T22:39:20.765Z,11.58
2018-04-30T22:41:49.059Z,11.56
2018-04-30T22:44:19.900Z,11.66
2018-04-30T22:46:48.192Z,11.65
2018-04-30T22:49:16.561Z,11.67
2018-04-30T22:51:44.939Z,11.72
2018-04-30T22:54:14.222Z,11.66
2018-04-30T22:56:42.509Z,11.56
2018-04-30T22:59:11.139Z,11.67
2018-04-30T23:01:39.413Z,11.61
2018-04-30T23:04:08.516Z,11.53
2018-04-30T23:06:36.863Z,11.31
2018-04-30T23:09:06.048Z,11.22
2018-04-30T23:11:35.269Z,11.16
2018-04-30T23:14:03.633Z,10.95
2018-04-30T23:16:32.319Z,10.62
2018-04-30T23:19:00.606Z,10.52
2018-04-30T23:21:28.862Z,10.45
2018-04-30T23:23:57.545Z,10.38
2018-04-30T23:26:25.802Z,10.40
2018-04-30T23:28:54.082Z,10.42
2018-04-30T23:31:25.292Z,10.32
2018-04-30T23:33:53.963Z,10.06
2018-04-30T23:36:22.250Z,10.20
2018-04-30T23:38:50.712Z,10.09
2018-04-30T23:41:19.002Z,10.17
2018-04-30T23:43:47.279Z,10.28
2018-04-30T23:46:16.082Z,10.32
2018-04-30T23:48:45.107Z,10.31
2018-04-30T23:51:14.139Z,10.40
2018-04-30T23:53:43.898Z,10.61
2018-04-30T23:56:12.183Z,10.74
2018-04-30T23:58:42.243Z,11.00
